Terminal Aerodrome Forecast
Issued by NWS St Louis, MO

Home | Current Version | Previous Version | Text Only | Print | Product List | Glossary On
Versions: 1 2 3 4 5 6 7 8 9 10 11 12 13 14 15 16 17 18 19 20 21 22 23 24 25 26 27 28
000
FTUS43 KLSX 051120
TAFSTL
TAF
KSTL 051120Z 0512/0618 17008KT 6SM -SHRA BKN020 OVC040
     FM051300 13008KT 6SM -SHRA OVC030
     FM051700 12009KT P6SM BKN040
     FM052300 11007KT 6SM SHRA VCTS OVC030CB
     FM060700 07006KT P6SM OVC020=

USA.gov is the U.S. government's official web portal to all federal, state and local government web resources and services.